Don's Testing Zone


Current Conditions
weather data
source:

National Weather Service
Clear Russellville, AR
Clear, 72°F
Sunday, August 19, 2018 6:53 AM CDT
Temperature: 72°F/22°C
Humidity: 100%
Barometer: 29.89in/1011.2mb Barometer Steady
Wind: CALM at 0mph/0kmh
View other cities:
Searcy | Little Rock | Hot Springs | Russellville | More...
Astronomical Conditions (Clear Sky Clock)
Searcy Clear Sky Clock
Find more weather in Little Rock, AR
    

Radar Images

NWS
    Wx Underground

KARK
   

Solar-Terrestrial Data

NWS METAR weather data

ADDS - METARS form results





Aviation Digital Data Service (ADDS) Output produced by METARs form (1209 UTC 19 August 2018) found at http://www.aviationweather.gov/adds/metars/ 

KRUE 191153Z AUTO 00000KT 1SM BR CLR 22/22 A2989 RMK AO2 SLP112 T02220222 1023320222 56001

KRUE 191124Z AUTO 00000KT 1 3/4SM BR FEW002 23/23 A2989 RMK AO2 T02280228

KRUE 191114Z AUTO 00000KT 5SM BR SCT002 23/23 A2989 RMK AO2 T02280228

KRUE 191104Z AUTO 00000KT 6SM BR BKN002 23/23 A2989 RMK AO2 T02330228

KRUE 191053Z AUTO 00000KT 5SM BR SCT002 23/23 A2989 RMK AO2 SLP113 T02280228

KRUE 190953Z AUTO 00000KT 5SM BR CLR 23/23 A2988 RMK AO2 SLP109 T02280228

KRUE 190859Z AUTO 00000KT 3SM BR CLR 23/23 A2989 RMK AO2 T02280228

KRUE 190853Z AUTO 00000KT 1 3/4SM BR CLR 23/23 A2989 RMK AO2 SLP113 T0228022858004

KRUE 190851Z AUTO 00000KT 1 3/4SM BR CLR 23/23 A2989 RMK AO2

KRUE 190753Z AUTO 00000KT 5SM BR CLR 23/23 A2989 RMK AO2 SLP115 T02280228

KRUE 190653Z AUTO 00000KT 4SM BR CLR 23/23 A2990 RMK AO2 SLP118 T02280228

KRUE 190553Z AUTO 00000KT 9SM CLR 24/23 A2990 RMK AO2 SLP117 T02390233 1030620239 403220217 58007

KRUE 190453Z AUTO 00000KT 8SM CLR 24/24 A2993 RMK AO2 SLP126 T02440239

KRUE 190353Z AUTO 00000KT 10SM CLR 24/24 A2993 RMK AO2 SLP128 T02440244

KRUE 190253Z AUTO 00000KT 10SM CLR 25/24 A2992 RMK AO2 SLP125 T02500244 53009

KRUE 190153Z AUTO 00000KT 10SM CLR 26/25 A2991 RMK AO2 SLP120 T02610250

KRUE 190053Z AUTO 00000KT 10SM CLR 28/25 A2990 RMK AO2 SLP118 T02780250

KRUE 182353Z AUTO 00000KT 10SM CLR 31/23 A2989 RMK AO2 SLP115 T03060233 1032220294 56010

KRUE 182253Z AUTO 17003KT 10SM CLR 31/23 A2990 RMK AO2 SLP116 T03110233

KRUE 182153Z AUTO 00000KT 10SM BKN035 32/23 A2991 RMK AO2 SLP120 T03170228

KRUE 182053Z AUTO 00000KT 10SM FEW032 32/23 A2993 RMK AO2 SLP125 T03170233 58019

KRUE 181953Z AUTO 20006KT 10SM FEW028 SCT038 32/24 A2995 RMK AO2 SLP133T03170244

KRUE 181853Z AUTO 21006KT 10SM SCT026 31/24 A2997 RMK AO2 SLP139 T03060244

KRUE 181826Z AUTO 22006KT 10SM BKN026 BKN032 30/24 A2997 RMK AO2 T03000239

KRUE 181753Z AUTO 18003KT 10SM FEW026 FEW032 30/23 A2998 RMK AO2 SLP144T03000233 10300 20217 58012

KRUE 181701Z AUTO VRB03KT 10SM SCT020 29/24 A3000 RMK AO2 T02890239

KRUE 181653Z AUTO 26004KT 10SM BKN018 29/23 A3000 RMK AO2 SLP151 T02890233

KRUE 181636Z AUTO 00000KT 10SM BKN017 28/23 A3000 RMK AO2 T02830233

KRUE 181553Z AUTO VRB03KT 10SM SCT012 27/23 A3001 RMK AO2 SLP155 T02670233

KRUE 181540Z AUTO VRB04KT 10SM SCT009 27/23 A3001 RMK AO2 T02670233

KRUE 181453Z AUTO 29004KT 10SM OVC008 24/23 A3002 RMK AO2 SLP157 T02440228 58005

KRUE 181437Z AUTO 28004KT 10SM OVC008 24/23 A3002 RMK AO2 T02440228

KRUE 181413Z AUTO 00000KT 10SM OVC006 24/23 A3003 RMK AO2 CIG 003V007 T02390228

KRUE 181353Z AUTO 00000KT 6SM BR BKN002 BKN007 OVC065 23/22 A3003 RMK AO2 SLP162T02330222

KRUE 181316Z AUTO 00000KT 3SM BR OVC002 22/22 A3003 RMK AO2 T02220222

KRUE 181253Z AUTO 00000KT 2SM BR OVC002 22/22 A3003 RMK AO2 SLP162 T02220222